createdAt,value
2023-04-01T00:01:17.836Z,9.83
2023-04-01T00:03:46.407Z,9.86
2023-04-01T00:06:16.834Z,9.89
2023-04-01T00:08:45.815Z,9.81
2023-04-01T00:11:14.835Z,9.80
2023-04-01T00:13:43.634Z,9.78
2023-04-01T00:16:21.083Z,9.75
2023-04-01T00:18:51.759Z,9.74
2023-04-01T00:21:21.494Z,9.69
2023-04-01T00:23:53.298Z,9.71
2023-04-01T00:26:22.930Z,9.76
2023-04-01T00:28:52.099Z,9.72
2023-04-01T00:31:20.943Z,9.69
2023-04-01T00:33:49.279Z,9.70
2023-04-01T00:36:20.791Z,9.69
2023-04-01T00:38:48.950Z,9.67
2023-04-01T00:41:18.798Z,9.73
2023-04-01T00:43:51.137Z,9.73
2023-04-01T00:46:20.512Z,9.81
2023-04-01T00:48:52.660Z,9.82
2023-04-01T00:51:28.409Z,9.73
2023-04-01T00:53:59.236Z,9.66
2023-04-01T00:56:33.372Z,9.67
2023-04-01T00:59:24.164Z,9.71
2023-04-01T01:01:52.380Z,9.70
2023-04-01T01:04:32.161Z,9.69
2023-04-01T01:07:21.598Z,9.69
2023-04-01T01:10:17.545Z,9.69
2023-04-01T01:13:23.674Z,9.67
2023-04-01T01:16:13.249Z,9.70
2023-04-01T01:18:47.076Z,9.71
2023-04-01T01:21:35.026Z,9.68
2023-04-01T01:24:09.020Z,9.75
2023-04-01T01:27:12.763Z,9.75
2023-04-01T01:29:43.796Z,9.78
2023-04-01T01:32:33.730Z,9.83
2023-04-01T01:35:25.619Z,9.79
2023-04-01T01:38:03.340Z,9.78
2023-04-01T01:40:34.397Z,9.77
2023-04-01T01:43:09.621Z,9.72
2023-04-01T01:45:45.960Z,9.71
2023-04-01T01:48:16.354Z,9.68
2023-04-01T01:50:47.108Z,9.65
2023-04-01T01:53:16.714Z,9.64
2023-04-01T01:55:47.774Z,9.67
2023-04-01T01:58:31.765Z,9.69
2023-04-01T02:01:02.431Z,9.73
2023-04-01T02:03:35.441Z,9.80
2023-04-01T02:06:07.572Z,9.83
2023-04-01T02:08:52.901Z,9.83
2023-04-01T02:11:45.704Z,9.87
2023-04-01T02:14:30.023Z,9.89
2023-04-01T02:17:14.982Z,9.86
2023-04-01T02:20:00.401Z,9.87
2023-04-01T02:22:36.551Z,9.89
2023-04-01T02:25:09.546Z,9.87
2023-04-01T02:27:39.426Z,9.84
2023-04-01T02:30:08.575Z,9.81
2023-04-01T02:32:39.133Z,9.73
2023-04-01T02:35:16.489Z,9.66
2023-04-01T02:37:47.934Z,9.63
2023-04-01T02:40:17.350Z,9.62
2023-04-01T02:42:46.734Z,9.61
2023-04-01T02:45:15.738Z,9.62
2023-04-01T02:47:43.911Z,9.65
2023-04-01T02:50:12.197Z,9.69
2023-04-01T02:52:40.497Z,9.75
2023-04-01T02:55:08.935Z,9.82
2023-04-01T02:57:36.842Z,9.85
2023-04-01T03:00:05.598Z,9.83
2023-04-01T03:02:33.656Z,9.82
2023-04-01T03:05:01.774Z,9.81
2023-04-01T03:07:29.720Z,9.81
2023-04-01T03:09:57.643Z,9.77
2023-04-01T03:12:25.803Z,9.75
2023-04-01T03:14:53.891Z,9.79
2023-04-01T03:17:21.922Z,9.77
2023-04-01T03:19:49.886Z,9.77
2023-04-01T03:22:17.967Z,9.76
2023-04-01T03:24:49.757Z,9.72
2023-04-01T03:27:18.272Z,9.70
2023-04-01T03:29:46.591Z,9.71
2023-04-01T03:32:14.927Z,9.76
2023-04-01T03:34:43.145Z,9.77
2023-04-01T03:37:11.539Z,9.76
2023-04-01T03:39:39.584Z,9.79
2023-04-01T03:42:07.730Z,9.81
2023-04-01T03:44:35.740Z,9.80
2023-04-01T03:47:04.111Z,9.81
2023-04-01T03:49:33.161Z,9.80
2023-04-01T03:52:01.363Z,9.80
2023-04-01T03:54:29.261Z,9.79
2023-04-01T03:56:59.165Z,9.78
2023-04-01T03:59:27.356Z,9.77
2023-04-01T04:01:55.638Z,9.84
2023-04-01T04:04:23.697Z,9.87
2023-04-01T04:06:52.269Z,9.80
2023-04-01T04:09:21.037Z,9.78
2023-04-01T04:11:49.944Z,9.76
2023-04-01T04:14:18.003Z,9.73
2023-04-01T04:16:47.245Z,9.67
2023-04-01T04:19:15.143Z,9.63
2023-04-01T04:21:43.472Z,9.64
2023-04-01T04:24:11.878Z,9.63
2023-04-01T04:27:00.624Z,9.59
2023-04-01T04:29:28.789Z,9.62
2023-04-01T04:31:56.929Z,9.62
2023-04-01T04:34:26.054Z,9.61
2023-04-01T04:36:53.935Z,9.60
2023-04-01T04:39:22.845Z,9.60
2023-04-01T04:41:51.565Z,9.57
2023-04-01T04:44:20.375Z,9.55
2023-04-01T04:46:48.503Z,9.50
2023-04-01T04:49:17.655Z,9.46
2023-04-01T04:51:45.813Z,9.42
2023-04-01T04:54:14.552Z,9.42
2023-04-01T04:56:55.446Z,9.42
2023-04-01T04:59:24.779Z,9.45
2023-04-01T05:02:03.771Z,9.42
2023-04-01T05:04:36.645Z,9.43
2023-04-01T05:07:04.790Z,9.45
2023-04-01T05:09:33.174Z,9.46
2023-04-01T05:12:01.157Z,9.46
2023-04-01T05:14:33.636Z,9.49
2023-04-01T05:17:11.620Z,9.50
2023-04-01T05:19:40.325Z,9.46
2023-04-01T05:22:08.428Z,9.52
2023-04-01T05:24:37.459Z,9.57
2023-04-01T05:27:05.405Z,9.58
2023-04-01T05:29:33.814Z,9.56
2023-04-01T05:32:05.966Z,9.60
2023-04-01T05:34:34.302Z,9.64
2023-04-01T05:37:02.566Z,9.72
2023-04-01T05:39:31.010Z,9.73
2023-04-01T05:41:59.789Z,9.77
2023-04-01T05:44:27.763Z,9.82
2023-04-01T05:47:21.233Z,9.90
2023-04-01T05:49:49.399Z,9.92
2023-04-01T05:52:17.613Z,9.97
2023-04-01T05:54:45.642Z,9.97
2023-04-01T05:57:13.721Z,9.93
2023-04-01T05:59:41.683Z,9.92
2023-04-01T06:02:11.846Z,9.92
2023-04-01T06:04:41.501Z,9.98
2023-04-01T06:07:14.792Z,9.96
2023-04-01T06:09:44.636Z,9.94
2023-04-01T06:12:25.069Z,9.95
2023-04-01T06:15:05.824Z,9.98
2023-04-01T06:17:48.789Z,10.06
2023-04-01T06:20:38.461Z,10.04
2023-04-01T06:23:25.295Z,9.96
2023-04-01T06:26:04.343Z,9.97
2023-04-01T06:29:01.548Z,9.96
2023-04-01T06:31:44.621Z,10.01
2023-04-01T06:34:38.433Z,10.03
2023-04-01T06:37:09.301Z,10.03
2023-04-01T06:39:46.109Z,10.08
2023-04-01T06:42:29.208Z,10.05
2023-04-01T06:45:19.454Z,10.04
2023-04-01T06:48:20.690Z,10.04
2023-04-01T06:51:28.732Z,10.07
2023-04-01T06:54:32.433Z,10.09
2023-04-01T06:57:46.445Z,10.10
2023-04-01T07:00:23.918Z,10.04
2023-04-01T07:03:34.131Z,10.08
2023-04-01T07:06:06.796Z,10.20
2023-04-01T07:08:43.562Z,10.18
2023-04-01T07:11:17.455Z,10.20
2023-04-01T07:14:13.374Z,10.15
2023-04-01T07:16:50.312Z,10.17
2023-04-01T07:19:53.189Z,10.20
2023-04-01T07:22:35.075Z,10.19
2023-04-01T07:25:44.600Z,10.18
2023-04-01T07:28:41.498Z,10.15
2023-04-01T07:31:58.570Z,10.17
2023-04-01T07:34:30.859Z,10.15
2023-04-01T07:37:09.576Z,10.12
2023-04-01T07:40:05.651Z,10.17
2023-04-01T07:42:41.537Z,10.22
2023-04-01T07:45:21.779Z,10.28
2023-04-01T07:48:08.650Z,10.32
2023-04-01T07:50:56.047Z,10.42
2023-04-01T07:53:38.162Z,10.44
2023-04-01T07:56:21.278Z,10.49
2023-04-01T07:59:32.929Z,10.49
2023-04-01T08:02:11.776Z,10.44
2023-04-01T08:05:11.994Z,10.43
2023-04-01T08:07:45.800Z,10.39
2023-04-01T08:10:56.376Z,10.34
2023-04-01T08:14:10.846Z,10.37
2023-04-01T08:17:03.952Z,10.50
2023-04-01T08:19:50.411Z,10.56
2023-04-01T08:22:28.505Z,10.53
2023-04-01T08:25:03.275Z,10.47
2023-04-01T08:27:46.697Z,10.56
2023-04-01T08:30:21.148Z,10.63
2023-04-01T08:32:57.065Z,10.76
2023-04-01T08:35:39.997Z,10.77
2023-04-01T08:38:18.708Z,10.93
2023-04-01T08:41:01.386Z,11.19
2023-04-01T08:44:09.934Z,11.48
2023-04-01T08:46:54.357Z,11.78
2023-04-01T08:49:41.210Z,12.01
2023-04-01T08:52:29.972Z,12.07
2023-04-01T08:55:23.600Z,12.19
2023-04-01T08:58:12.763Z,12.23
2023-04-01T09:00:55.609Z,12.39
2023-04-01T09:03:56.773Z,12.51
2023-04-01T09:06:57.313Z,12.62
2023-04-01T09:09:43.592Z,12.66
2023-04-01T09:12:31.458Z,12.60
2023-04-01T09:15:27.564Z,12.55
2023-04-01T09:18:09.072Z,12.47
2023-04-01T09:21:22.505Z,12.45
2023-04-01T09:23:53.182Z,12.39
2023-04-01T09:26:49.011Z,12.37
2023-04-01T09:29:37.105Z,12.18
2023-04-01T09:32:26.267Z,12.05
2023-04-01T09:35:24.267Z,11.95
2023-04-01T09:38:24.130Z,11.92
2023-04-01T09:41:16.093Z,11.87
2023-04-01T09:44:42.983Z,11.96
2023-04-01T09:47:45.156Z,12.25
2023-04-01T09:50:39.406Z,12.65
2023-04-01T09:53:31.324Z,12.92
2023-04-01T09:56:33.126Z,12.91
2023-04-01T09:59:56.912Z,12.82
2023-04-01T10:03:11.949Z,12.56
2023-04-01T10:05:57.445Z,12.42
2023-04-01T10:08:35.217Z,12.26
2023-04-01T10:11:12.310Z,12.35
2023-04-01T10:14:05.612Z,12.48
2023-04-01T10:16:52.761Z,12.56
2023-04-01T10:19:50.381Z,12.55
2023-04-01T10:22:44.840Z,12.49
2023-04-01T10:25:38.357Z,12.27
2023-04-01T10:28:34.481Z,12.10
2023-04-01T10:31:44.806Z,11.86
2023-04-01T10:34:46.512Z,11.70
2023-04-01T10:37:33.915Z,11.56
2023-04-01T10:40:08.646Z,11.54
2023-04-01T10:43:21.596Z,11.55
2023-04-01T10:46:10.520Z,11.44
2023-04-01T10:49:00.533Z,11.40
2023-04-01T10:51:47.444Z,11.36
2023-04-01T10:54:59.589Z,11.32
2023-04-01T10:58:14.617Z,11.22
2023-04-01T11:01:46.151Z,11.04
2023-04-01T11:05:11.105Z,10.88
2023-04-01T11:08:41.406Z,10.77
2023-04-01T11:11:22.709Z,10.70
2023-04-01T11:13:50.729Z,10.77
2023-04-01T11:16:37.891Z,10.97
2023-04-01T11:19:18.586Z,11.29
2023-04-01T11:21:55.737Z,11.50
2023-04-01T11:24:55.889Z,11.73
2023-04-01T11:28:07.114Z,11.97
2023-04-01T11:31:14.000Z,12.05
2023-04-01T11:34:20.256Z,12.05
2023-04-01T11:37:16.980Z,12.04
2023-04-01T11:40:06.088Z,11.83
2023-04-01T11:43:09.415Z,11.74
2023-04-01T11:46:11.305Z,11.56
2023-04-01T11:49:05.408Z,11.40
2023-04-01T11:52:19.705Z,11.26
2023-04-01T11:55:04.868Z,11.07
2023-04-01T11:57:48.780Z,10.97
2023-04-01T12:00:32.890Z,10.86
2023-04-01T12:03:25.755Z,10.75
2023-04-01T12:05:59.573Z,10.63
2023-04-01T12:08:30.703Z,10.65
2023-04-01T12:11:17.406Z,10.71
2023-04-01T12:13:53.810Z,10.77
2023-04-01T12:16:42.041Z,10.76
2023-04-01T12:19:29.883Z,10.73
2023-04-01T12:22:36.391Z,10.76
2023-04-01T12:25:26.391Z,10.77
2023-04-01T12:28:15.671Z,10.76
2023-04-01T12:31:18.065Z,10.78
2023-04-01T12:33:53.108Z,10.82
2023-04-01T12:36:37.104Z,10.90
2023-04-01T12:39:32.993Z,10.86
2023-04-01T12:42:09.827Z,11.03
2023-04-01T12:44:58.020Z,11.19
2023-04-01T12:47:46.604Z,11.28
2023-04-01T12:50:35.836Z,11.37
2023-04-01T12:53:46.048Z,11.38
2023-04-01T12:56:40.337Z,11.33
2023-04-01T12:59:28.769Z,10.97
2023-04-01T13:02:29.463Z,10.75
2023-04-01T13:05:24.717Z,10.56
2023-04-01T13:07:52.500Z,10.45
2023-04-01T13:10:32.158Z,10.40
2023-04-01T13:13:24.687Z,10.38
2023-04-01T13:16:04.612Z,10.32
2023-04-01T13:18:40.796Z,10.22
2023-04-01T13:21:27.440Z,10.18
2023-04-01T13:24:31.179Z,10.31
2023-04-01T13:27:32.102Z,10.33
2023-04-01T13:30:24.673Z,10.33
2023-04-01T13:33:34.815Z,10.27
2023-04-01T13:36:21.644Z,10.37
2023-04-01T13:39:02.096Z,10.54
2023-04-01T13:41:56.745Z,10.48
2023-04-01T13:44:36.762Z,10.59
2023-04-01T13:47:43.254Z,10.63
2023-04-01T13:50:20.424Z,10.75
2023-04-01T13:53:07.224Z,10.81
2023-04-01T13:55:40.805Z,10.74
2023-04-01T13:58:25.616Z,10.66
2023-04-01T14:00:56.873Z,10.78
2023-04-01T14:03:53.467Z,10.85
2023-04-01T14:06:32.771Z,10.90
2023-04-01T14:09:01.016Z,11.10
2023-04-01T14:11:53.003Z,11.22
2023-04-01T14:14:42.794Z,11.28
2023-04-01T14:17:26.778Z,11.22
2023-04-01T14:20:26.758Z,11.17
2023-04-01T14:23:35.142Z,11.15
2023-04-01T14:26:23.836Z,11.10
2023-04-01T14:29:09.943Z,10.94
2023-04-01T14:31:59.141Z,10.81
2023-04-01T14:34:53.405Z,10.68
2023-04-01T14:37:51.710Z,10.60
2023-04-01T14:40:33.910Z,10.64
2023-04-01T14:43:04.654Z,10.54
2023-04-01T14:45:35.651Z,10.50
2023-04-01T14:48:34.489Z,10.35
2023-04-01T14:51:29.050Z,10.20
2023-04-01T14:54:09.815Z,10.14
2023-04-01T14:56:48.663Z,10.11
2023-04-01T14:59:22.372Z,10.00
2023-04-01T15:01:59.762Z,9.93
2023-04-01T15:04:29.598Z,9.87
2023-04-01T15:07:12.790Z,9.82
2023-04-01T15:09:49.838Z,9.75
2023-04-01T15:12:28.155Z,9.81
2023-04-01T15:14:58.914Z,9.83
2023-04-01T15:17:57.393Z,9.78
2023-04-01T15:20:48.208Z,9.78
2023-04-01T15:23:35.131Z,9.80
2023-04-01T15:26:28.125Z,9.81
2023-04-01T15:29:33.015Z,9.79
2023-04-01T15:32:27.603Z,9.79
2023-04-01T15:35:14.083Z,9.74
2023-04-01T15:37:57.100Z,9.74
2023-04-01T15:40:42.847Z,9.72
2023-04-01T15:43:37.781Z,9.71
2023-04-01T15:46:28.916Z,9.65
2023-04-01T15:49:23.775Z,9.53
2023-04-01T15:52:03.876Z,9.53
2023-04-01T15:54:46.669Z,9.45
2023-04-01T15:57:34.091Z,9.51
2023-04-01T16:00:21.919Z,9.46
2023-04-01T16:03:25.136Z,9.44
2023-04-01T16:06:12.637Z,9.45
2023-04-01T16:08:52.416Z,9.45
2023-04-01T16:11:43.047Z,9.44
2023-04-01T16:14:26.664Z,9.41
2023-04-01T16:17:06.814Z,9.39
2023-04-01T16:19:42.791Z,9.31
2023-04-01T16:22:39.883Z,9.25
2023-04-01T16:25:37.323Z,9.16
2023-04-01T16:28:14.185Z,9.13
2023-04-01T16:30:42.134Z,9.04
2023-04-01T16:33:43.830Z,9.02
2023-04-01T16:36:36.950Z,8.98
2023-04-01T16:39:28.280Z,9.01
2023-04-01T16:42:08.211Z,8.94
2023-04-01T16:45:08.193Z,8.96
2023-04-01T16:47:51.527Z,8.95
2023-04-01T16:50:24.587Z,8.95
2023-04-01T16:53:00.988Z,8.93
2023-04-01T16:55:45.491Z,8.87
2023-04-01T16:58:22.568Z,8.82
2023-04-01T17:00:56.564Z,8.78
2023-04-01T17:03:45.705Z,8.75
2023-04-01T17:06:44.728Z,8.75
2023-04-01T17:09:43.558Z,8.62
2023-04-01T17:12:38.080Z,8.59
2023-04-01T17:15:12.901Z,8.54
2023-04-01T17:17:55.128Z,8.59
2023-04-01T17:20:41.740Z,8.59
2023-04-01T17:23:22.308Z,8.52
2023-04-01T17:26:05.163Z,8.48
2023-04-01T17:28:47.358Z,8.40
2023-04-01T17:31:54.590Z,8.36
2023-04-01T17:34:55.852Z,8.36
2023-04-01T17:37:42.027Z,8.28
2023-04-01T17:40:22.173Z,8.21
2023-04-01T17:43:17.551Z,8.24
2023-04-01T17:45:57.881Z,8.08
2023-04-01T17:48:53.940Z,8.02
2023-04-01T17:51:30.909Z,8.01
2023-04-01T17:54:32.640Z,7.99
2023-04-01T17:57:43.124Z,7.99
2023-04-01T18:00:13.902Z,7.87
2023-04-01T18:03:15.889Z,7.88
2023-04-01T18:06:02.662Z,7.87
2023-04-01T18:09:15.043Z,7.89
2023-04-01T18:12:19.260Z,7.82
2023-04-01T18:14:55.623Z,7.76
2023-04-01T18:17:33.914Z,7.70
2023-04-01T18:20:20.028Z,7.61
2023-04-01T18:23:36.103Z,7.58
2023-04-01T18:26:09.946Z,7.58
2023-04-01T18:28:45.110Z,7.52
2023-04-01T18:31:17.868Z,7.53
2023-04-01T18:33:50.503Z,7.47
2023-04-01T18:36:38.638Z,7.41
2023-04-01T18:39:12.624Z,7.29
2023-04-01T18:42:08.304Z,7.29
2023-04-01T18:45:07.746Z,7.20
2023-04-01T18:48:00.981Z,7.23
2023-04-01T18:51:06.780Z,7.15
2023-04-01T18:53:48.579Z,7.07
2023-04-01T18:56:28.304Z,7.05
2023-04-01T18:59:04.997Z,7.05
2023-04-01T19:02:04.895Z,7.03
2023-04-01T19:04:40.035Z,6.99
2023-04-01T19:07:38.345Z,6.96
2023-04-01T19:10:40.804Z,6.97
2023-04-01T19:13:18.121Z,6.86
2023-04-01T19:16:04.417Z,6.76
2023-04-01T19:18:47.766Z,6.69
2023-04-01T19:21:30.854Z,6.61
2023-04-01T19:24:04.903Z,6.57
2023-04-01T19:26:40.645Z,6.53
2023-04-01T19:29:25.737Z,6.49
2023-04-01T19:32:05.170Z,6.54
2023-04-01T19:34:41.400Z,6.54
2023-04-01T19:37:37.590Z,6.59
2023-04-01T19:40:21.673Z,6.46
2023-04-01T19:43:09.173Z,6.38
2023-04-01T19:46:33.412Z,6.42
2023-04-01T19:49:19.536Z,6.40
2023-04-01T19:52:18.472Z,6.42
2023-04-01T19:55:01.627Z,6.38
2023-04-01T19:58:05.367Z,6.41
2023-04-01T20:00:40.616Z,6.40
2023-04-01T20:03:30.454Z,6.36
2023-04-01T20:06:14.756Z,6.37
2023-04-01T20:09:04.669Z,6.39
2023-04-01T20:11:44.576Z,6.36
2023-04-01T20:14:31.184Z,6.36
2023-04-01T20:17:10.565Z,6.28
2023-04-01T20:19:46.847Z,6.25
2023-04-01T20:22:26.173Z,6.26
2023-04-01T20:24:59.406Z,6.21
2023-04-01T20:27:33.479Z,6.20
2023-04-01T20:30:10.839Z,6.15
2023-04-01T20:32:47.609Z,6.10
2023-04-01T20:35:50.055Z,6.07
2023-04-01T20:38:59.475Z,6.02
2023-04-01T20:41:39.676Z,6.07
2023-04-01T20:44:13.544Z,6.02
2023-04-01T20:46:45.304Z,6.01
2023-04-01T20:49:47.635Z,5.97
2023-04-01T20:52:15.557Z,5.96
2023-04-01T20:54:55.280Z,5.85
2023-04-01T20:57:55.748Z,5.82
2023-04-01T21:00:36.102Z,5.75
2023-04-01T21:03:22.573Z,5.76
2023-04-01T21:06:03.024Z,5.67
2023-04-01T21:08:40.049Z,5.70
2023-04-01T21:11:19.881Z,5.59
2023-04-01T21:14:29.315Z,5.59
2023-04-01T21:17:05.842Z,5.60
2023-04-01T21:19:59.416Z,5.62
2023-04-01T21:22:45.975Z,5.55
2023-04-01T21:25:53.027Z,5.50
2023-04-01T21:28:51.492Z,5.48
2023-04-01T21:31:43.393Z,5.38
2023-04-01T21:34:17.275Z,5.43
2023-04-01T21:37:01.051Z,5.40
2023-04-01T21:40:01.056Z,5.36
2023-04-01T21:42:44.374Z,5.34
2023-04-01T21:45:59.257Z,5.28
2023-04-01T21:48:29.908Z,5.21
2023-04-01T21:51:21.826Z,5.22
2023-04-01T21:54:54.529Z,5.20
2023-04-01T21:57:22.473Z,5.16
2023-04-01T22:00:12.361Z,5.12
2023-04-01T22:02:42.891Z,5.16
2023-04-01T22:05:22.794Z,5.13
2023-04-01T22:08:02.647Z,5.09
2023-04-01T22:10:46.979Z,5.04
2023-04-01T22:13:26.094Z,5.05
2023-04-01T22:16:16.526Z,5.07
2023-04-01T22:18:52.818Z,5.05
2023-04-01T22:21:39.337Z,4.99
2023-04-01T22:24:23.761Z,4.94
2023-04-01T22:26:55.952Z,4.97
2023-04-01T22:29:44.414Z,4.95
2023-04-01T22:32:22.477Z,4.98
2023-04-01T22:34:56.913Z,4.97
2023-04-01T22:37:43.843Z,4.94
2023-04-01T22:40:40.523Z,4.82
2023-04-01T22:43:16.757Z,4.85
2023-04-01T22:46:13.615Z,4.76
2023-04-01T22:48:48.802Z,4.72
2023-04-01T22:51:22.256Z,4.64
2023-04-01T22:54:05.246Z,4.67
2023-04-01T22:56:41.412Z,4.67
2023-04-01T22:59:38.158Z,4.59
2023-04-01T23:02:15.724Z,4.55
2023-04-01T23:04:48.525Z,4.60
2023-04-01T23:07:50.665Z,4.55
2023-04-01T23:10:37.767Z,4.58
2023-04-01T23:13:11.328Z,4.56
2023-04-01T23:15:39.815Z,4.52
2023-04-01T23:18:13.752Z,4.51
2023-04-01T23:21:15.325Z,4.50
2023-04-01T23:23:53.440Z,4.47
2023-04-01T23:26:33.145Z,4.41
2023-04-01T23:29:02.342Z,4.33
2023-04-01T23:31:32.365Z,4.36
2023-04-01T23:34:05.462Z,4.35
2023-04-01T23:36:40.414Z,4.37
2023-04-01T23:39:31.444Z,4.39
2023-04-01T23:42:20.686Z,4.45
2023-04-01T23:44:52.225Z,4.38
2023-04-01T23:47:24.639Z,4.41
2023-04-01T23:49:57.116Z,4.35
2023-04-01T23:52:32.339Z,4.40
2023-04-01T23:55:05.430Z,4.33
2023-04-01T23:57:35.868Z,4.30
